Time;durP1;ratioP1;P1;durP2;ratioP2;P2;SDS_P1;SDS_P2;PMS_P1;PMS_P2;Temp;Humidity;BMP_temperature;BMP_pressure;BME280_temperature;BME280_humidity;BME280_pressure;Samples;Min_cycle;Max_cycle;Signal;HPM_P1;HPM_P2
2022/05/12 00:02:02;;;;;;;4.03;3.63;;;17.00;86.10;;;;;;5054721;28;20292;-70
2022/05/12 00:04:29;;;;;;;5.18;3.85;;;17.00;86.40;;;;;;5054822;28;20249;-70
2022/05/12 00:06:55;;;;;;;3.78;3.45;;;17.00;88.20;;;;;;5055871;28;20190;-70
2022/05/12 00:09:21;;;;;;;6.32;3.72;;;16.90;88.70;;;;;;5054810;28;20219;-70
2022/05/12 00:11:47;;;;;;;3.70;3.40;;;16.90;89.30;;;;;;5055825;28;20190;-70
2022/05/12 00:14:13;;;;;;;5.28;3.63;;;16.80;90.00;;;;;;5054525;28;20205;-70
2022/05/12 00:16:38;;;;;;;4.80;3.88;;;16.80;90.50;;;;;;5055780;28;20300;-70
2022/05/12 00:19:04;;;;;;;4.80;3.80;;;16.80;90.50;;;;;;5055304;28;20266;-70
2022/05/12 00:21:30;;;;;;;7.20;3.70;;;16.70;90.70;;;;;;5054287;28;20206;-70
2022/05/12 00:23:56;;;;;;;4.45;3.40;;;16.60;90.10;;;;;;5054439;28;20283;-70
2022/05/12 00:26:33;;;;;;;4.13;3.67;;;16.60;90.50;;;;;;5054873;28;20190;-70
2022/05/12 00:29:00;;;;;;;7.38;3.35;;;16.60;90.50;;;;;;5054290;28;20265;-70
2022/05/12 00:31:28;;;;;;;8.13;3.28;;;16.50;90.60;;;;;;5055456;28;20182;-70
2022/05/12 00:33:54;;;;;;;4.80;3.08;;;16.50;90.50;;;;;;5055391;28;20249;-70
2022/05/12 00:36:19;;;;;;;5.55;3.72;;;16.50;90.30;;;;;;5054967;28;20287;-70
2022/05/12 00:38:45;;;;;;;5.07;3.53;;;16.50;90.40;;;;;;5054072;28;20178;-70
2022/05/12 00:41:11;;;;;;;5.20;3.20;;;16.50;90.60;;;;;;5054407;28;20175;-70
2022/05/12 00:43:45;;;;;;;5.47;3.30;;;16.50;90.60;;;;;;5054668;28;20688;-70
2022/05/12 00:46:17;;;;;;;3.55;3.22;;;16.40;91.10;;;;;;5054452;28;20247;-70
2022/05/12 00:48:45;;;;;;;4.15;3.40;;;16.30;91.00;;;;;;5054788;28;20170;-70
2022/05/12 00:51:14;;;;;;;8.05;3.88;;;16.30;91.10;;;;;;5055390;28;20253;-70
2022/05/12 00:53:41;;;;;;;5.53;4.15;;;16.10;91.70;;;;;;5054926;28;20174;-70
2022/05/12 00:56:11;;;;;;;3.90;3.60;;;16.00;91.80;;;;;;5053692;28;20198;-70
2022/05/12 00:58:38;;;;;;;4.60;3.78;;;16.00;91.70;;;;;;5054775;28;20174;-70
2022/05/12 01:01:06;;;;;;;6.28;3.70;;;16.00;92.10;;;;;;5054817;28;20181;-70
2022/05/12 01:03:32;;;;;;;8.55;3.83;;;16.00;92.40;;;;;;5055311;28;20212;-70
2022/05/12 01:05:58;;;;;;;3.90;3.50;;;15.90;92.30;;;;;;5054685;28;20194;-70
2022/05/12 01:08:25;;;;;;;6.65;3.40;;;15.90;92.30;;;;;;5054750;28;20166;-70
2022/05/12 01:11:02;;;;;;;5.53;3.83;;;15.90;92.60;;;;;;5054263;28;20178;-70
2022/05/12 01:13:28;;;;;;;4.13;3.42;;;15.90;92.50;;;;;;5054951;28;20169;-70
2022/05/12 01:15:58;;;;;;;6.88;3.58;;;15.90;92.70;;;;;;5053540;28;20209;-70
2022/05/12 01:18:24;;;;;;;3.88;3.55;;;15.70;92.80;;;;;;5054213;28;20190;-70
2022/05/12 01:20:51;;;;;;;5.13;3.53;;;15.70;93.30;;;;;;5054699;28;20209;-70
2022/05/12 01:23:19;;;;;;;5.72;3.75;;;15.80;93.70;;;;;;5054333;28;20202;-70
2022/05/12 01:25:45;;;;;;;4.15;3.60;;;15.80;93.40;;;;;;5053504;28;20201;-70
2022/05/12 01:28:10;;;;;;;4.60;3.88;;;15.80;93.30;;;;;;5053203;28;20186;-70
2022/05/12 01:30:36;;;;;;;4.15;3.55;;;15.80;93.20;;;;;;5054569;28;20170;-70
2022/05/12 01:33:01;;;;;;;6.85;3.88;;;15.90;92.80;;;;;;5054555;28;20174;-70
2022/05/12 01:35:27;;;;;;;5.22;3.50;;;15.80;91.90;;;;;;5053815;28;20269;-70
2022/05/12 01:37:53;;;;;;;3.67;3.28;;;15.80;92.00;;;;;;5054394;28;20217;-70
2022/05/12 01:40:22;;;;;;;4.80;3.80;;;15.70;92.70;;;;;;5052881;28;20193;-70
2022/05/12 01:42:48;;;;;;;4.43;3.40;;;15.80;92.60;;;;;;5053673;28;20291;-70
2022/05/12 01:45:14;;;;;;;6.70;3.20;;;15.80;91.80;;;;;;5053956;28;20613;-70
2022/05/12 01:47:41;;;;;;;3.35;3.15;;;15.70;92.00;;;;;;5052741;28;20589;-70
2022/05/12 01:50:08;;;;;;;9.18;3.40;;;15.70;92.20;;;;;;5053116;28;20178;-70
2022/05/12 01:52:33;;;;;;;4.95;3.15;;;15.70;92.20;;;;;;5053546;28;20182;-70
2022/05/12 01:54:59;;;;;;;3.03;2.83;;;15.80;91.90;;;;;;5052643;28;20185;-70
2022/05/12 01:57:25;;;;;;;6.70;3.38;;;15.70;91.70;;;;;;5053355;28;20236;-70
2022/05/12 01:59:51;;;;;;;3.60;3.30;;;15.70;91.60;;;;;;5054164;28;20248;-70
2022/05/12 02:02:16;;;;;;;4.28;3.28;;;15.70;91.60;;;;;;5053647;28;20197;-70
2022/05/12 02:04:42;;;;;;;6.07;2.97;;;15.70;91.10;;;;;;5052592;28;20174;-70
2022/05/12 02:07:09;;;;;;;4.10;2.90;;;15.70;91.20;;;;;;5052394;28;20198;-70
2022/05/12 02:09:35;;;;;;;4.65;2.88;;;15.70;91.50;;;;;;5051828;28;20185;-70
2022/05/12 02:12:00;;;;;;;5.85;2.88;;;15.70;91.50;;;;;;5053506;28;20261;-70
2022/05/12 02:14:27;;;;;;;4.90;3.17;;;15.70;91.40;;;;;;5052755;28;20201;-70
2022/05/12 02:16:52;;;;;;;3.88;3.05;;;15.60;91.40;;;;;;5052637;28;20221;-70
2022/05/12 02:19:18;;;;;;;6.45;2.90;;;15.70;91.70;;;;;;5052273;28;20556;-70
2022/05/12 02:21:44;;;;;;;7.70;2.80;;;15.70;91.50;;;;;;5052194;28;20209;-70
2022/05/12 02:24:09;;;;;;;3.10;2.60;;;15.70;91.40;;;;;;5053470;28;20173;-70
2022/05/12 02:26:35;;;;;;;2.65;2.42;;;15.70;91.40;;;;;;5052044;28;20630;-70
2022/05/12 02:29:01;;;;;;;2.85;2.65;;;15.70;91.20;;;;;;5053223;28;20174;-70
2022/05/12 02:31:26;;;;;;;3.75;2.70;;;15.70;91.20;;;;;;5053273;28;20182;-70
2022/05/12 02:33:52;;;;;;;2.90;2.60;;;15.70;91.10;;;;;;5053617;28;20174;-70
2022/05/12 02:36:19;;;;;;;6.57;2.97;;;15.70;91.00;;;;;;5053115;28;20239;-70
2022/05/12 02:38:44;;;;;;;2.70;2.50;;;15.70;90.60;;;;;;5053300;28;20201;-70
2022/05/12 02:41:10;;;;;;;3.13;2.70;;;15.70;90.90;;;;;;5052065;28;20206;-70
2022/05/12 02:43:35;;;;;;;3.17;2.60;;;15.70;91.10;;;;;;5053144;28;20263;-70
2022/05/12 02:46:05;;;;;;;2.90;2.65;;;15.70;91.10;;;;;;5052282;28;20193;-70
2022/05/12 02:48:33;;;;;;;7.80;2.85;;;15.70;91.00;;;;;;5052257;28;20228;-70
2022/05/12 02:50:59;;;;;;;3.15;2.75;;;15.60;90.70;;;;;;5052788;28;20224;-70
2022/05/12 02:53:26;;;;;;;5.40;2.70;;;15.70;91.00;;;;;;5053157;28;20174;-70
2022/05/12 02:55:52;;;;;;;4.70;2.60;;;15.60;91.20;;;;;;5052114;28;20194;-70
2022/05/12 02:59:00;;;;;;;2.55;2.35;;;15.60;91.30;;;;;;5051895;28;20185;-70
2022/05/12 03:01:26;;;;;;;3.08;2.67;;;15.60;91.60;;;;;;5052287;28;20206;-70
2022/05/12 03:03:51;;;;;;;4.68;2.72;;;15.50;91.90;;;;;;5053401;28;20202;-70
2022/05/12 03:06:17;;;;;;;4.18;2.53;;;15.60;91.50;;;;;;5052408;28;20222;-70
2022/05/12 03:08:42;;;;;;;5.70;2.78;;;15.60;91.70;;;;;;5053286;28;20249;-70
2022/05/12 03:11:08;;;;;;;2.95;2.65;;;15.60;91.50;;;;;;5052186;28;20205;-70
2022/05/12 03:13:34;;;;;;;4.00;2.53;;;15.60;91.80;;;;;;5051885;28;20178;-70
2022/05/12 03:16:00;;;;;;;2.80;2.30;;;15.50;92.20;;;;;;5052123;28;20263;-70
2022/05/12 03:18:26;;;;;;;4.18;2.72;;;15.50;92.30;;;;;;5051842;28;20592;-70
2022/05/12 03:20:51;;;;;;;4.43;3.08;;;15.50;92.40;;;;;;5052143;28;20193;-70
2022/05/12 03:23:18;;;;;;;3.20;2.90;;;15.50;92.50;;;;;;5055547;28;20265;-70
2022/05/12 03:25:44;;;;;;;2.95;2.65;;;15.50;92.60;;;;;;5055336;28;20228;-70
2022/05/12 03:28:10;;;;;;;3.88;3.20;;;15.50;92.70;;;;;;5055355;28;20182;-70
2022/05/12 03:30:36;;;;;;;6.38;2.92;;;15.50;92.90;;;;;;5055392;28;20174;-70
2022/05/12 03:33:02;;;;;;;6.43;2.72;;;15.50;93.20;;;;;;5056519;28;20231;-70
2022/05/12 03:35:28;;;;;;;7.82;2.90;;;15.50;93.30;;;;;;5055298;28;20185;-70
2022/05/12 03:37:54;;;;;;;6.90;2.83;;;15.50;93.10;;;;;;5055294;28;20185;-70
2022/05/12 03:40:20;;;;;;;7.20;3.20;;;15.50;93.70;;;;;;5055160;28;20186;-70
2022/05/12 03:42:46;;;;;;;4.80;2.60;;;15.50;94.20;;;;;;5055098;28;20220;-70
2022/05/12 03:45:13;;;;;;;3.22;2.33;;;15.50;94.50;;;;;;5055671;28;20172;-70
2022/05/12 03:47:40;;;;;;;6.03;2.60;;;15.60;94.80;;;;;;5056531;28;20250;-70
2022/05/12 03:50:12;;;;;;;3.53;2.20;;;15.60;94.70;;;;;;5055670;28;20178;-70
2022/05/12 03:52:38;;;;;;;6.15;2.50;;;15.60;95.00;;;;;;5056427;28;20248;-70
2022/05/12 03:55:06;;;;;;;8.45;2.70;;;15.60;95.30;;;;;;5055260;28;20236;-70
2022/05/12 03:57:32;;;;;;;5.13;1.90;;;15.70;95.40;;;;;;5054731;28;20198;-70
2022/05/12 03:59:57;;;;;;;2.13;2.00;;;15.70;95.50;;;;;;5056311;28;20228;-70
2022/05/12 04:02:24;;;;;;;3.60;2.10;;;15.80;95.80;;;;;;5055975;28;20647;-70
2022/05/12 04:04:50;;;;;;;5.03;2.13;;;15.80;95.30;;;;;;5055937;28;20190;-70
2022/05/12 04:07:19;;;;;;;4.35;2.30;;;15.90;95.50;;;;;;5054951;28;20198;-70
2022/05/12 04:09:45;;;;;;;4.93;2.50;;;16.00;95.10;;;;;;5054999;28;20175;-70
2022/05/12 04:12:11;;;;;;;3.45;2.20;;;16.10;94.60;;;;;;5054593;28;20204;-70
2022/05/12 04:14:38;;;;;;;6.05;2.22;;;16.10;94.60;;;;;;5054965;28;20178;-70
2022/05/12 04:17:05;;;;;;;8.98;2.40;;;16.20;94.60;;;;;;5054568;28;20221;-70
2022/05/12 04:19:31;;;;;;;6.35;2.53;;;16.20;94.40;;;;;;5054698;28;20205;-70
2022/05/12 04:21:57;;;;;;;5.30;2.47;;;16.20;94.40;;;;;;5057666;28;20198;-70
2022/05/12 04:24:22;;;;;;;9.77;2.40;;;16.30;94.10;;;;;;5056234;28;20181;-70
2022/05/12 04:26:48;;;;;;;2.75;2.25;;;16.30;94.20;;;;;;5056041;28;20191;-70
2022/05/12 04:29:14;;;;;;;8.25;2.58;;;16.30;94.60;;;;;;5056646;28;20243;-70
2022/05/12 04:31:41;;;;;;;4.47;2.65;;;16.40;94.20;;;;;;5059988;28;20178;-70
2022/05/12 04:36:52;;;;;;;4.20;2.28;;;16.40;93.60;;;;;;5056179;28;20201;-71
2022/05/12 04:39:19;;;;;;;5.20;2.28;;;16.50;93.90;;;;;;5055781;28;20209;-71
2022/05/12 04:41:45;;;;;;;10.82;2.80;;;16.50;94.00;;;;;;5054356;28;20219;-71
2022/05/12 04:44:12;;;;;;;16.30;2.90;;;16.60;93.50;;;;;;5054172;28;20178;-75
2022/05/12 04:46:43;;;;;;;10.10;3.13;;;16.60;93.10;;;;;;5055295;28;20278;-70
2022/05/12 04:49:13;;;;;;;14.77;2.50;;;16.60;93.10;;;;;;5055133;28;20158;-70
2022/05/12 04:51:40;;;;;;;10.70;2.60;;;16.70;92.90;;;;;;5054802;28;20162;-71
2022/05/12 04:54:12;;;;;;;9.85;2.80;;;16.70;93.00;;;;;;5054293;28;20257;-70
2022/05/12 04:56:40;;;;;;;13.00;2.92;;;16.80;92.70;;;;;;5055284;28;20193;-69
2022/05/12 04:59:07;;;;;;;11.70;2.22;;;16.80;93.10;;;;;;5055000;28;20265;-70
2022/05/12 05:01:34;;;;;;;4.97;2.60;;;16.90;92.70;;;;;;5054941;28;20523;-70
2022/05/12 05:04:00;;;;;;;10.07;2.30;;;16.90;92.80;;;;;;5053686;28;20182;-71
2022/05/12 05:06:32;;;;;;;6.88;2.00;;;17.00;92.50;;;;;;5054165;28;20198;-72
2022/05/12 05:08:59;;;;;;;11.32;2.30;;;17.10;92.00;;;;;;5054811;28;20161;-71
2022/05/12 05:11:25;;;;;;;4.60;2.10;;;17.10;91.00;;;;;;5053802;28;20210;-70
2022/05/12 05:13:51;;;;;;;6.65;2.00;;;17.20;90.40;;;;;;5053985;28;20200;-70
2022/05/12 05:16:17;;;;;;;7.03;2.20;;;17.20;90.40;;;;;;5053721;28;20277;-69
2022/05/12 05:18:44;;;;;;;6.90;2.25;;;17.20;88.60;;;;;;5053366;28;20252;-69
2022/05/12 05:21:10;;;;;;;5.28;1.85;;;17.30;88.40;;;;;;5053248;28;20210;-69
2022/05/12 05:23:39;;;;;;;4.35;1.80;;;17.40;88.10;;;;;;5054368;28;20194;-69
2022/05/12 05:26:07;;;;;;;4.60;1.70;;;17.50;86.20;;;;;;5053147;28;20220;-70
2022/05/12 05:28:33;;;;;;;13.15;2.53;;;17.70;84.80;;;;;;5054467;28;20261;-71
2022/05/12 05:30:59;;;;;;;10.48;2.10;;;17.90;82.50;;;;;;5053031;28;20257;-71
2022/05/12 05:33:25;;;;;;;4.90;2.00;;;18.10;83.00;;;;;;5053057;28;20228;-71
2022/05/12 05:35:51;;;;;;;9.02;2.28;;;18.10;82.00;;;;;;5054238;28;20205;-71
2022/05/12 05:38:17;;;;;;;4.05;2.00;;;18.10;81.50;;;;;;5053041;28;20247;-71
2022/05/12 05:40:42;;;;;;;7.93;2.22;;;18.00;81.40;;;;;;5054182;28;20182;-71
2022/05/12 05:43:08;;;;;;;4.88;2.33;;;17.90;80.10;;;;;;5053274;28;20201;-69
2022/05/12 05:45:34;;;;;;;15.20;2.25;;;17.80;81.60;;;;;;5053104;28;20212;-69
2022/05/12 05:48:04;;;;;;;5.28;2.53;;;17.80;82.50;;;;;;5052898;28;20185;-70
2022/05/12 05:53:35;;;;;;;6.97;1.90;;;18.20;82.40;;;;;;5054531;28;20174;-70
2022/05/12 05:56:03;;;;;;;4.68;2.10;;;18.50;79.40;;;;;;5052700;28;20221;-70
2022/05/12 05:58:29;;;;;;;9.77;2.50;;;18.50;78.10;;;;;;5052783;28;20181;-71
2022/05/12 06:00:54;;;;;;;4.75;2.47;;;18.70;78.50;;;;;;5053083;28;20178;-71
2022/05/12 06:03:21;;;;;;;4.95;2.05;;;18.90;76.50;;;;;;5052642;28;20676;-70
2022/05/12 06:05:47;;;;;;;3.72;2.08;;;18.80;75.50;;;;;;5054002;28;20196;-70
2022/05/12 06:08:16;;;;;;;4.53;2.08;;;18.80;74.90;;;;;;5052763;28;20178;-70
2022/05/12 06:10:43;;;;;;;4.97;2.08;;;18.70;76.00;;;;;;5052291;28;20178;-69
2022/05/12 06:13:15;;;;;;;3.85;2.13;;;18.60;75.80;;;;;;5052659;28;20297;-64
2022/05/12 06:15:41;;;;;;;5.22;2.20;;;18.70;76.70;;;;;;5052377;28;20198;-64
2022/05/12 06:18:08;;;;;;;4.10;1.90;;;18.90;76.10;;;;;;5052645;28;20166;-65
2022/05/12 06:20:34;;;;;;;5.88;2.03;;;18.90;74.90;;;;;;5052176;28;20188;-65
2022/05/12 06:22:59;;;;;;;8.30;1.90;;;18.90;74.40;;;;;;5052579;28;20297;-66
2022/05/12 06:25:25;;;;;;;6.18;2.13;;;18.80;74.50;;;;;;5052314;28;20178;-65
2022/05/12 06:27:51;;;;;;;3.92;2.08;;;18.80;75.60;;;;;;5053438;28;20201;-65
2022/05/12 06:30:18;;;;;;;4.10;1.63;;;18.70;73.70;;;;;;5052619;28;20596;-70
2022/05/12 06:32:44;;;;;;;23.95;2.67;;;18.60;72.90;;;;;;5053825;28;20185;-70
2022/05/12 06:35:12;;;;;;;5.43;2.05;;;18.50;72.30;;;;;;5053752;28;20179;-72
2022/05/12 06:37:38;;;;;;;11.55;2.22;;;18.40;72.70;;;;;;5053271;28;20198;-73
2022/05/12 06:40:04;;;;;;;14.13;2.50;;;18.50;73.00;;;;;;5053544;28;20511;-72
2022/05/12 06:42:31;;;;;;;6.85;1.92;;;18.70;73.20;;;;;;5051541;28;20210;-72
2022/05/12 06:44:56;;;;;;;6.38;1.80;;;18.80;72.70;;;;;;5051403;28;20657;-72
2022/05/12 06:47:22;;;;;;;7.28;1.83;;;18.90;72.50;;;;;;5052274;28;20226;-72
2022/05/12 06:49:52;;;;;;;8.18;2.10;;;19.20;72.60;;;;;;5052674;28;20174;-72
2022/05/12 06:52:18;;;;;;;4.82;1.67;;;19.60;71.40;;;;;;5051893;28;20193;-71
2022/05/12 06:54:45;;;;;;;9.57;2.00;;;19.90;70.00;;;;;;5052344;28;20170;-72
2022/05/12 06:57:12;;;;;;;6.63;2.28;;;20.00;68.10;;;;;;5054268;28;20214;-71
2022/05/12 06:59:39;;;;;;;4.82;1.65;;;20.10;67.70;;;;;;5056940;28;20190;-72
2022/05/12 07:02:06;;;;;;;5.85;1.50;;;20.00;68.30;;;;;;5057199;28;20213;-71
2022/05/12 07:04:32;;;;;;;7.65;2.20;;;20.10;68.00;;;;;;5056404;28;20260;-71
2022/05/12 07:06:58;;;;;;;2.83;1.77;;;20.20;68.30;;;;;;5055798;28;20210;-71
2022/05/12 07:09:24;;;;;;;5.45;1.83;;;20.30;66.30;;;;;;5056111;28;20257;-70
2022/05/12 07:11:50;;;;;;;4.47;1.85;;;20.20;66.70;;;;;;5056190;28;20186;-71
2022/05/12 07:14:17;;;;;;;8.90;2.10;;;20.20;66.70;;;;;;5057209;28;20565;-72
2022/05/12 07:16:44;;;;;;;5.43;1.65;;;20.20;66.10;;;;;;5055800;28;20233;-72
2022/05/12 07:19:11;;;;;;;4.28;1.90;;;20.10;66.50;;;;;;5056443;28;20679;-72
2022/05/12 07:27:06;;;;;;;4.68;1.85;;;19.80;67.80;;;;;;5057211;28;20251;-71
2022/05/12 07:29:34;;;;;;;2.28;1.50;;;19.70;67.70;;;;;;5056132;28;20170;-71
2022/05/12 07:32:01;;;;;;;4.25;1.55;;;19.60;67.50;;;;;;5057448;28;20201;-72
2022/05/12 07:34:27;;;;;;;6.75;1.70;;;19.50;67.50;;;;;;5055796;28;20186;-72
2022/05/12 07:36:53;;;;;;;9.90;2.10;;;19.60;66.80;;;;;;5056188;28;20583;-73
2022/05/12 07:39:25;;;;;;;11.70;2.28;;;19.60;67.70;;;;;;5057218;28;20175;-71
2022/05/12 07:41:52;;;;;;;6.35;1.60;;;19.50;67.70;;;;;;5055516;28;20182;-71
2022/05/12 07:44:19;;;;;;;3.40;1.77;;;19.50;68.10;;;;;;5055435;28;20186;-71
2022/05/12 07:46:46;;;;;;;6.05;1.80;;;19.60;67.50;;;;;;5055133;28;20580;-71
2022/05/12 07:49:12;;;;;;;12.25;2.40;;;19.60;67.50;;;;;;5055235;28;20633;-70
2022/05/12 07:51:38;;;;;;;3.08;1.80;;;19.90;68.20;;;;;;5056807;28;20193;-71
2022/05/12 07:54:04;;;;;;;7.63;1.80;;;20.10;68.50;;;;;;5055701;28;20182;-71
2022/05/12 07:56:30;;;;;;;4.38;1.80;;;20.10;67.10;;;;;;5054910;28;20577;-71
2022/05/12 07:58:57;;;;;;;11.65;2.50;;;19.90;66.00;;;;;;5056234;28;20236;-71
2022/05/12 08:01:24;;;;;;;4.60;1.80;;;19.80;67.40;;;;;;5055763;28;20220;-71
2022/05/12 08:03:51;;;;;;;6.38;1.88;;;19.80;67.80;;;;;;5056359;28;20230;-72
2022/05/12 08:06:19;;;;;;;5.82;1.80;;;19.70;66.40;;;;;;5054877;28;20226;-72
2022/05/12 08:08:48;;;;;;;5.85;2.25;;;19.80;67.50;;;;;;5054142;28;20200;-72
2022/05/12 08:11:14;;;;;;;5.65;1.90;;;20.00;65.90;;;;;;5055799;28;20170;-72
2022/05/12 08:13:45;;;;;;;6.70;1.90;;;20.10;66.90;;;;;;5055582;28;20641;-72
2022/05/12 08:16:10;;;;;;;5.60;2.10;;;20.40;67.20;;;;;;5056158;28;20304;-71
2022/05/12 08:18:36;;;;;;;3.50;1.90;;;20.70;66.70;;;;;;5055585;28;20269;-71
2022/05/12 08:21:02;;;;;;;3.42;1.70;;;20.70;65.30;;;;;;5055552;28;20178;-71
2022/05/12 08:23:27;;;;;;;13.05;2.53;;;20.90;64.70;;;;;;5054712;28;20194;-71
2022/05/12 08:25:53;;;;;;;6.72;2.03;;;21.00;65.60;;;;;;5055034;28;20198;-72
2022/05/12 08:28:22;;;;;;;9.82;2.00;;;21.40;64.70;;;;;;5055924;28;20178;-71
2022/05/12 08:30:49;;;;;;;2.60;1.80;;;21.50;63.20;;;;;;5054494;28;20174;-72
2022/05/12 08:33:15;;;;;;;10.48;2.50;;;21.70;61.90;;;;;;5054354;28;20182;-72
2022/05/12 08:35:42;;;;;;;7.35;2.05;;;21.80;62.90;;;;;;5054568;28;20194;-72
2022/05/12 08:38:08;;;;;;;5.45;2.17;;;21.90;62.70;;;;;;5054688;28;20702;-71
2022/05/12 08:41:12;;;;;;;3.63;1.75;;;22.00;63.70;;;;;;5054612;28;20190;-72
2022/05/12 08:43:43;;;;;;;2.60;1.70;;;22.30;64.30;;;;;;5054280;28;20193;-71
2022/05/12 08:46:14;;;;;;;8.32;2.40;;;22.40;62.00;;;;;;5054839;28;20263;-71
2022/05/12 08:48:43;;;;;;;4.80;1.90;;;22.70;62.20;;;;;;5054308;28;20178;-72
2022/05/12 08:51:12;;;;;;;2.50;1.70;;;23.00;62.90;;;;;;5055543;28;20178;-72
2022/05/12 08:53:49;;;;;;;4.10;1.90;;;23.30;59.90;;;;;;5054065;28;20205;-72
2022/05/12 08:56:19;;;;;;;5.07;2.70;;;23.80;60.80;;;;;;5054201;28;20688;-71
2022/05/12 08:58:48;;;;;;;8.43;2.33;;;23.90;59.00;;;;;;5054179;28;20193;-71
2022/05/12 09:01:58;;;;;;;4.63;2.10;;;23.80;58.80;;;;;;5054288;28;20225;-72
2022/05/12 09:04:38;;;;;;;7.10;2.47;;;23.70;58.70;;;;;;5032106;28;20198;-72
2022/05/12 09:07:13;;;;;;;5.63;2.55;;;23.30;58.70;;;;;;5054040;28;20202;-72
2022/05/12 09:10:03;;;;;;;3.13;1.90;;;23.40;57.90;;;;;;5053856;28;20521;-72
2022/05/12 09:12:36;;;;;;;2.67;1.95;;;23.50;57.30;;;;;;5053262;28;20551;-72
2022/05/12 09:15:10;;;;;;;5.28;2.10;;;23.40;57.30;;;;;;5054753;28;20637;-72
2022/05/12 09:17:44;;;;;;;6.97;1.92;;;22.90;57.60;;;;;;5053341;28;20210;-71
2022/05/12 09:20:11;;;;;;;8.13;2.17;;;22.50;59.50;;;;;;5053103;28;20170;-72
2022/05/12 09:22:37;;;;;;;4.05;1.85;;;22.20;60.10;;;;;;5054665;28;20256;-72
2022/05/12 09:25:05;;;;;;;8.45;2.00;;;22.00;61.00;;;;;;5054489;28;20174;-72
2022/05/12 09:27:35;;;;;;;4.43;1.70;;;22.20;60.90;;;;;;5053608;28;20214;-71
2022/05/12 09:30:03;;;;;;;7.03;2.35;;;22.40;59.80;;;;;;5053141;28;20181;-72
2022/05/12 09:32:32;;;;;;;4.78;2.13;;;22.60;59.20;;;;;;5054036;28;20224;-72
2022/05/12 09:35:10;;;;;;;8.02;2.05;;;22.90;59.90;;;;;;5052946;28;20181;-73
2022/05/12 09:37:40;;;;;;;2.75;1.90;;;23.00;59.70;;;;;;5052747;28;20627;-73
2022/05/12 09:40:27;;;;;;;4.78;2.13;;;23.10;58.30;;;;;;5052953;28;20175;-72
2022/05/12 09:42:58;;;;;;;3.38;1.80;;;23.10;58.50;;;;;;5052469;28;20683;-72
2022/05/12 09:45:36;;;;;;;3.90;1.95;;;23.40;57.10;;;;;;5052658;28;20174;-72
2022/05/12 09:48:22;;;;;;;13.50;2.50;;;23.40;56.00;;;;;;5042960;28;20190;-72
2022/05/12 09:50:48;;;;;;;5.25;1.80;;;23.30;56.20;;;;;;5053341;28;20174;-72
2022/05/12 09:53:30;;;;;;;8.00;2.03;;;22.80;56.40;;;;;;5053106;28;20182;-72
2022/05/12 09:56:32;;;;;;;11.95;2.50;;;22.80;55.60;;;;;;5053024;28;20205;-72
2022/05/12 09:59:07;;;;;;;2.63;1.83;;;23.10;56.10;;;;;;5050473;28;20196;-72
2022/05/12 10:01:33;;;;;;;4.82;1.98;;;23.70;56.00;;;;;;5053101;28;20181;-72
2022/05/12 10:09:53;;;;;;;4.03;2.00;;;23.80;54.10;;;;;;5034973;28;20241;-78
2022/05/12 10:12:25;;;;;;;4.25;2.03;;;23.40;55.10;;;;;;5052655;28;20229;-72
2022/05/12 10:14:58;;;;;;;3.88;1.85;;;23.20;55.20;;;;;;5052738;28;20190;-72
2022/05/12 10:17:48;;;;;;;5.38;1.95;;;23.10;55.90;;;;;;5052945;28;20246;-72
2022/05/12 10:20:21;;;;;;;4.95;1.85;;;22.90;56.20;;;;;;5054373;28;20174;-71
2022/05/12 10:23:02;;;;;;;3.78;1.63;;;22.90;56.40;;;;;;5052194;28;20677;-71
2022/05/12 10:26:01;;;;;;;4.57;1.90;;;22.80;53.80;;;;;;5052904;28;20162;-71
2022/05/12 10:28:53;;;;;;;9.45;1.88;;;22.90;54.50;;;;;;5052616;28;20245;-71
2022/05/12 10:31:32;;;;;;;6.90;1.40;;;23.10;54.90;;;;;;5051631;28;20245;-72
2022/05/12 10:34:06;;;;;;;9.75;1.60;;;23.20;53.50;;;;;;5051989;28;20174;-71
2022/05/12 10:36:53;;;;;;;3.60;1.52;;;23.20;53.00;;;;;;5052023;28;20208;-72
2022/05/12 10:39:55;;;;;;;12.85;2.00;;;23.30;53.20;;;;;;5052368;28;20193;-72
2022/05/12 10:42:33;;;;;;;5.80;1.70;;;23.40;53.50;;;;;;5053100;28;20189;-72
2022/05/12 10:45:06;;;;;;;3.63;1.60;;;23.40;51.30;;;;;;5052403;28;20174;-71
2022/05/12 10:48:19;;;;;;;9.00;4.22;;;23.30;51.40;;;;;;5052634;28;20262;-72
2022/05/12 10:51:01;;;;;;;8.55;5.63;;;23.10;52.30;;;;;;5051118;28;20641;-72
2022/05/12 10:53:57;;;;;;;28.80;15.68;;;23.20;52.40;;;;;;5052836;28;20261;-72
2022/05/12 10:56:41;;;;;;;11.60;7.07;;;23.20;52.90;;;;;;5052284;28;20198;-71
2022/05/12 10:59:21;;;;;;;14.20;7.68;;;23.40;52.80;;;;;;5053405;28;20236;-72
2022/05/12 11:01:51;;;;;;;31.55;19.70;;;23.50;51.40;;;;;;5053172;28;20174;-71
2022/05/12 11:04:33;;;;;;;48.65;35.42;;;23.60;51.80;;;;;;5052532;28;20177;-73
2022/05/12 11:07:05;;;;;;;13.88;7.70;;;23.70;52.80;;;;;;5053103;28;20205;-72
2022/05/12 11:09:44;;;;;;;17.33;11.52;;;23.90;52.20;;;;;;5053194;28;20542;-71
2022/05/12 11:12:19;;;;;;;10.43;4.82;;;24.10;51.60;;;;;;5052666;28;20220;-72
2022/05/12 11:14:55;;;;;;;4.70;2.05;;;24.10;50.80;;;;;;5052092;28;20178;-72
2022/05/12 11:17:46;;;;;;;4.95;2.65;;;24.00;51.60;;;;;;5051821;28;20221;-71
2022/05/12 11:20:26;;;;;;;9.02;2.63;;;24.20;51.60;;;;;;5052170;28;20189;-72
2022/05/12 11:22:55;;;;;;;7.55;4.03;;;24.30;50.50;;;;;;5052064;28;20190;-71
2022/05/12 11:25:42;;;;;;;5.65;2.97;;;23.50;50.60;;;;;;5053038;28;20661;-72
2022/05/12 11:31:15;;;;;;;8.48;2.80;;;22.40;54.30;;;;;;5054782;28;20211;-72
2022/05/12 11:33:50;;;;;;;7.13;1.90;;;22.00;53.70;;;;;;5053510;28;20197;-72
2022/05/12 11:36:16;;;;;;;7.00;2.15;;;21.60;53.80;;;;;;5053571;28;20198;-71
2022/05/12 11:38:45;;;;;;;4.78;1.90;;;21.60;55.50;;;;;;5053225;28;20178;-72
2022/05/12 11:41:19;;;;;;;5.85;1.80;;;21.70;55.40;;;;;;5052147;28;20588;-71
2022/05/12 11:46:52;;;;;;;2.05;1.50;;;22.10;55.20;;;;;;5057168;28;20205;-72
2022/05/12 11:49:42;;;;;;;4.55;1.70;;;22.30;54.60;;;;;;5055238;28;20194;-72
2022/05/12 11:52:42;;;;;;;7.00;2.17;;;22.50;54.10;;;;;;5056081;28;20555;-73
2022/05/12 11:55:23;;;;;;;6.70;1.70;;;22.70;54.50;;;;;;5055231;28;20174;-73
2022/05/12 11:58:03;;;;;;;2.95;1.65;;;22.90;53.70;;;;;;5056443;28;20168;-73
2022/05/12 12:00:34;;;;;;;5.60;2.88;;;23.10;52.80;;;;;;5055068;28;20259;-72
2022/05/12 12:03:22;;;;;;;5.82;1.98;;;23.20;53.30;;;;;;5055449;28;20198;-72
2022/05/12 12:05:47;;;;;;;4.18;1.60;;;23.40;54.10;;;;;;5034825;28;20212;-73
2022/05/12 12:08:45;;;;;;;2.53;1.90;;;23.80;53.40;;;;;;5054694;28;20256;-74
2022/05/12 12:11:14;;;;;;;9.98;3.10;;;24.10;52.30;;;;;;5054923;28;20670;-72
2022/05/12 12:13:44;;;;;;;7.50;2.05;;;24.30;51.10;;;;;;5054292;28;20174;-72
2022/05/12 12:16:13;;;;;;;7.15;2.42;;;24.50;50.60;;;;;;5055755;28;20217;-71
2022/05/12 12:18:39;;;;;;;4.90;2.92;;;24.50;49.80;;;;;;5054209;28;20247;-72
2022/05/12 12:21:36;;;;;;;5.25;1.98;;;24.60;49.40;;;;;;5054392;28;20182;-73
2022/05/12 12:24:18;;;;;;;3.90;1.70;;;24.70;49.30;;;;;;5055326;28;20249;-71
2022/05/12 12:26:44;;;;;;;4.03;1.95;;;24.60;49.40;;;;;;5054499;28;20197;-72
2022/05/12 12:29:10;;;;;;;11.18;1.98;;;24.20;49.80;;;;;;5054121;28;20224;-72
2022/05/12 12:31:37;;;;;;;4.43;2.20;;;24.00;50.00;;;;;;5055012;28;20171;-72
2022/05/12 12:34:24;;;;;;;9.20;2.00;;;23.40;51.30;;;;;;5054744;28;20269;-72
2022/05/12 12:36:57;;;;;;;5.22;2.22;;;23.40;50.60;;;;;;5055372;28;20198;-72
2022/05/12 12:39:37;;;;;;;5.10;1.65;;;23.50;51.60;;;;;;5054564;28;20281;-72
2022/05/12 12:42:34;;;;;;;5.68;1.70;;;23.60;50.80;;;;;;5054507;28;20182;-73
2022/05/12 12:45:16;;;;;;;8.02;1.70;;;23.70;51.10;;;;;;5054181;28;20190;-73
2022/05/12 12:47:44;;;;;;;5.45;1.70;;;24.00;51.70;;;;;;5053997;28;20205;-73
2022/05/12 12:50:32;;;;;;;4.25;1.50;;;24.00;50.10;;;;;;5053737;28;20182;-72
2022/05/12 12:52:58;;;;;;;6.15;1.70;;;24.20;51.20;;;;;;5055399;28;20245;-73
2022/05/12 12:58:35;;;;;;;4.38;1.75;;;24.60;50.70;;;;;;5055356;28;20177;-72
2022/05/12 13:01:10;;;;;;;2.70;1.70;;;24.40;48.70;;;;;;5051142;28;20201;-72
2022/05/12 13:03:36;;;;;;;3.30;1.70;;;24.20;48.20;;;;;;5054806;28;20210;-72
2022/05/12 13:06:10;;;;;;;5.88;1.83;;;24.20;49.80;;;;;;5053923;28;20201;-73
2022/05/12 13:08:36;;;;;;;6.38;1.70;;;24.10;49.80;;;;;;5053074;28;20179;-72
2022/05/12 13:11:05;;;;;;;2.33;1.40;;;24.00;48.80;;;;;;5054662;28;20181;-73
2022/05/12 13:13:30;;;;;;;3.35;1.85;;;24.00;50.30;;;;;;5053050;28;20178;-73
2022/05/12 13:16:03;;;;;;;8.57;1.80;;;24.00;49.30;;;;;;5054643;28;20209;-72
2022/05/12 13:18:45;;;;;;;3.97;1.70;;;23.90;47.80;;;;;;5054414;28;20163;-72
2022/05/12 13:21:19;;;;;;;2.75;1.50;;;24.00;49.40;;;;;;5053425;28;20255;-73
2022/05/12 13:23:58;;;;;;;2.17;1.38;;;24.10;49.40;;;;;;5054732;28;20272;-73
2022/05/12 13:26:24;;;;;;;4.38;1.40;;;24.30;49.00;;;;;;5053209;28;20197;-72
2022/05/12 13:28:49;;;;;;;3.47;1.70;;;24.30;48.70;;;;;;5053844;28;20182;-74